createdAt,value
2019-01-20T00:02:25.062Z,93.70
2019-01-20T00:04:53.683Z,93.70
2019-01-20T00:07:22.277Z,93.60
2019-01-20T00:09:50.906Z,93.70
2019-01-20T00:12:19.547Z,93.60
2019-01-20T00:14:48.113Z,93.60
2019-01-20T00:17:19.243Z,93.40
2019-01-20T00:19:47.880Z,93.20
2019-01-20T00:22:17.493Z,93.10
2019-01-20T00:24:46.288Z,93.10
2019-01-20T00:27:14.974Z,93.10
2019-01-20T00:29:43.562Z,93.10
2019-01-20T00:32:12.240Z,92.80
2019-01-20T00:34:40.879Z,92.90
2019-01-20T00:37:09.482Z,92.60
2019-01-20T00:39:38.862Z,92.60
2019-01-20T00:42:07.443Z,92.60
2019-01-20T00:44:36.310Z,92.50
2019-01-20T00:47:05.002Z,92.00
2019-01-20T00:49:33.593Z,91.80
2019-01-20T00:52:02.392Z,92.00
2019-01-20T00:54:31.093Z,92.00
2019-01-20T00:56:59.678Z,92.00
2019-01-20T00:59:32.650Z,92.20
2019-01-20T01:02:01.406Z,92.20
2019-01-20T01:04:30.226Z,92.30
2019-01-20T01:06:58.998Z,92.50
2019-01-20T01:09:27.567Z,92.60
2019-01-20T01:11:58.094Z,92.60
2019-01-20T01:14:26.666Z,92.60
2019-01-20T01:16:55.249Z,92.70
2019-01-20T01:19:23.822Z,92.70
2019-01-20T01:21:52.407Z,92.90
2019-01-20T01:24:20.981Z,92.90
2019-01-20T01:26:49.560Z,93.00
2019-01-20T01:29:18.122Z,92.90
2019-01-20T01:31:46.702Z,93.10
2019-01-20T01:34:16.051Z,93.10
2019-01-20T01:36:44.635Z,93.00
2019-01-20T01:39:13.221Z,93.00
2019-01-20T01:41:41.914Z,93.30
2019-01-20T01:44:10.485Z,93.70
2019-01-20T01:46:39.071Z,93.90
2019-01-20T01:49:07.712Z,93.90
2019-01-20T01:51:36.282Z,93.90
2019-01-20T01:54:04.890Z,93.90
2019-01-20T01:56:35.125Z,93.80
2019-01-20T01:59:03.708Z,93.80
2019-01-20T02:01:32.283Z,93.60
2019-01-20T02:04:00.853Z,93.50
2019-01-20T02:06:29.427Z,93.30
2019-01-20T02:08:58.010Z,93.30
2019-01-20T02:11:26.568Z,93.50
2019-01-20T02:13:55.157Z,93.20
2019-01-20T02:16:23.729Z,93.20
2019-01-20T02:18:53.121Z,93.30
2019-01-20T02:21:21.749Z,93.40
2019-01-20T02:23:50.317Z,93.50
2019-01-20T02:26:18.889Z,93.90
2019-01-20T02:28:47.467Z,93.70
2019-01-20T02:31:16.038Z,93.60
2019-01-20T02:33:44.604Z,93.60
2019-01-20T02:36:13.325Z,93.60
2019-01-20T02:38:41.906Z,93.60
2019-01-20T02:41:10.491Z,93.60
2019-01-20T02:43:39.069Z,93.40
2019-01-20T02:46:07.645Z,93.40
2019-01-20T02:48:36.236Z,93.40
2019-01-20T02:51:04.820Z,93.40
2019-01-20T02:53:33.405Z,93.30
2019-01-20T02:56:01.982Z,93.20
2019-01-20T02:58:30.570Z,93.20
2019-01-20T03:00:59.150Z,93.20
2019-01-20T03:03:29.130Z,93.10
2019-01-20T03:05:57.709Z,92.90
2019-01-20T03:08:26.276Z,92.70
2019-01-20T03:10:55.049Z,92.60
2019-01-20T03:13:23.647Z,92.70
2019-01-20T03:15:52.234Z,92.60
2019-01-20T03:18:20.803Z,92.40
2019-01-20T03:20:49.388Z,91.90
2019-01-20T03:23:17.956Z,91.80
2019-01-20T03:25:46.529Z,91.70
2019-01-20T03:28:15.106Z,91.80
2019-01-20T03:30:43.693Z,91.90
2019-01-20T03:33:12.263Z,91.90
2019-01-20T03:35:40.852Z,92.10
2019-01-20T03:38:09.416Z,91.80
2019-01-20T03:40:37.986Z,91.80
2019-01-20T03:43:06.693Z,91.80
2019-01-20T03:45:35.335Z,91.80
2019-01-20T03:48:03.936Z,91.70
2019-01-20T03:50:32.518Z,91.80
2019-01-20T03:53:01.087Z,91.80
2019-01-20T03:55:29.676Z,91.90
2019-01-20T03:57:58.237Z,92.10
2019-01-20T04:00:26.810Z,92.00
2019-01-20T04:03:05.084Z,91.80
2019-01-20T04:05:33.642Z,91.90
2019-01-20T04:08:02.236Z,91.70
2019-01-20T04:10:30.800Z,91.60
2019-01-20T04:12:59.391Z,91.20
2019-01-20T04:15:28.038Z,91.20
2019-01-20T04:17:56.634Z,91.70
2019-01-20T04:20:25.210Z,91.90
2019-01-20T04:22:53.794Z,92.20
2019-01-20T04:25:22.379Z,92.30
2019-01-20T04:27:50.969Z,92.50
2019-01-20T04:30:20.130Z,92.50
2019-01-20T04:32:48.780Z,92.80
2019-01-20T04:35:17.373Z,92.70
2019-01-20T04:37:45.949Z,92.70
2019-01-20T04:40:17.026Z,92.70
2019-01-20T04:42:45.586Z,92.70
2019-01-20T04:45:14.193Z,92.80
2019-01-20T04:47:43.128Z,92.90
2019-01-20T04:50:16.601Z,93.00
2019-01-20T04:52:46.154Z,93.10
2019-01-20T04:55:14.911Z,93.20
2019-01-20T04:57:46.223Z,93.30
2019-01-20T05:00:17.249Z,93.40
2019-01-20T05:02:45.813Z,93.40
2019-01-20T05:05:14.406Z,93.60
2019-01-20T05:07:42.991Z,93.70
2019-01-20T05:10:13.032Z,93.60
2019-01-20T05:12:41.677Z,93.70
2019-01-20T05:15:12.369Z,93.70
2019-01-20T05:17:40.949Z,93.70
2019-01-20T05:20:09.569Z,93.80
2019-01-20T05:22:38.231Z,93.90
2019-01-20T05:25:07.156Z,93.90
2019-01-20T05:27:35.756Z,93.80
2019-01-20T05:30:05.608Z,94.00
2019-01-20T05:32:34.197Z,93.90
2019-01-20T05:35:02.794Z,93.80
2019-01-20T05:37:31.417Z,93.70
2019-01-20T05:39:59.991Z,93.70
2019-01-20T05:42:28.570Z,93.70
2019-01-20T05:44:57.178Z,93.50
2019-01-20T05:47:27.278Z,93.40
2019-01-20T05:49:55.870Z,93.30
2019-01-20T05:52:24.453Z,93.30
2019-01-20T05:54:53.070Z,93.10
2019-01-20T05:57:21.637Z,93.10
2019-01-20T05:59:50.218Z,93.00
2019-01-20T06:02:18.790Z,93.00
2019-01-20T06:04:47.410Z,93.00
2019-01-20T06:07:15.985Z,93.00
2019-01-20T06:09:44.625Z,93.00
2019-01-20T06:12:13.216Z,93.00
2019-01-20T06:14:41.802Z,93.10
2019-01-20T06:17:10.377Z,92.90
2019-01-20T06:19:38.977Z,93.10
2019-01-20T06:22:07.554Z,93.00
2019-01-20T06:24:36.144Z,92.90
2019-01-20T06:27:04.719Z,92.90
2019-01-20T06:29:33.302Z,92.80
2019-01-20T06:32:01.896Z,92.80
2019-01-20T06:34:30.485Z,92.90
2019-01-20T06:36:59.086Z,93.00
2019-01-20T06:39:29.035Z,92.90
2019-01-20T06:41:57.610Z,92.90
2019-01-20T06:44:26.198Z,93.00
2019-01-20T06:46:54.778Z,92.90
2019-01-20T06:49:23.392Z,92.90
2019-01-20T06:51:51.978Z,92.90
2019-01-20T06:54:20.578Z,93.10
2019-01-20T06:56:49.155Z,93.20
2019-01-20T06:59:18.169Z,93.30
2019-01-20T07:01:46.770Z,93.40
2019-01-20T07:04:15.367Z,93.30
2019-01-20T07:06:44.016Z,93.40
2019-01-20T07:09:12.586Z,93.30
2019-01-20T07:11:41.152Z,93.30
2019-01-20T07:14:09.721Z,93.40
2019-01-20T07:16:38.309Z,93.30
2019-01-20T07:19:06.950Z,93.30
2019-01-20T07:21:36.201Z,93.40
2019-01-20T07:24:04.811Z,93.40
2019-01-20T07:26:33.397Z,93.30
2019-01-20T07:29:01.964Z,93.30
2019-01-20T07:31:30.541Z,93.10
2019-01-20T07:33:59.112Z,93.00
2019-01-20T07:36:27.690Z,93.00
2019-01-20T07:38:56.250Z,92.80
2019-01-20T07:41:24.836Z,92.90
2019-01-20T07:43:54.194Z,92.70
2019-01-20T07:46:22.794Z,92.70
2019-01-20T07:48:51.390Z,92.50
2019-01-20T07:51:19.974Z,92.30
2019-01-20T07:53:48.558Z,91.90
2019-01-20T07:56:17.146Z,91.90
2019-01-20T07:58:45.718Z,91.70
2019-01-20T08:01:14.294Z,91.60
2019-01-20T08:03:42.872Z,91.30
2019-01-20T08:06:12.079Z,91.30
2019-01-20T08:08:40.661Z,91.20
2019-01-20T08:11:09.230Z,91.20
2019-01-20T08:13:37.811Z,91.10
2019-01-20T08:16:06.398Z,91.10
2019-01-20T08:18:34.974Z,91.10
2019-01-20T08:21:03.592Z,91.10
2019-01-20T08:23:32.160Z,91.00
2019-01-20T08:26:01.020Z,91.10
2019-01-20T08:28:29.619Z,90.90
2019-01-20T08:30:58.221Z,90.90
2019-01-20T08:33:26.778Z,90.70
2019-01-20T08:35:55.357Z,89.50
2019-01-20T08:38:24.046Z,87.90
2019-01-20T08:40:52.629Z,89.00
2019-01-20T08:43:31.542Z,87.00
2019-01-20T08:46:42.702Z,87.40
2019-01-20T08:49:11.289Z,86.30
2019-01-20T08:51:41.238Z,84.60
2019-01-20T08:54:09.858Z,84.80
2019-01-20T08:56:38.451Z,84.90
2019-01-20T08:59:07.017Z,83.40
2019-01-20T09:01:35.608Z,84.00
2019-01-20T09:04:04.817Z,84.80
2019-01-20T09:06:33.482Z,83.40
2019-01-20T09:09:03.773Z,80.60
2019-01-20T09:11:33.768Z,77.30
2019-01-20T09:14:02.582Z,77.70
2019-01-20T09:16:31.272Z,76.40
2019-01-20T09:18:59.898Z,74.50
2019-01-20T09:21:28.492Z,76.70
2019-01-20T09:23:57.070Z,75.20
2019-01-20T09:26:25.658Z,73.60
2019-01-20T09:28:55.765Z,73.30
2019-01-20T09:31:24.342Z,74.00
2019-01-20T09:33:55.511Z,71.20
2019-01-20T09:36:28.416Z,71.30
2019-01-20T09:38:57.206Z,72.90
2019-01-20T09:41:26.102Z,74.60
2019-01-20T09:43:54.813Z,75.70
2019-01-20T09:46:23.377Z,76.80
2019-01-20T09:48:52.008Z,78.10
2019-01-20T09:51:20.910Z,78.70
2019-01-20T09:53:49.563Z,79.40
2019-01-20T09:56:18.126Z,78.70
2019-01-20T09:58:49.361Z,78.00
2019-01-20T10:01:20.825Z,76.70
2019-01-20T10:03:58.469Z,76.10
2019-01-20T10:06:27.068Z,74.40
2019-01-20T10:08:55.654Z,74.20
2019-01-20T10:11:24.237Z,73.00
2019-01-20T10:13:54.858Z,72.90
2019-01-20T10:16:23.133Z,69.60
2019-01-20T10:18:51.706Z,67.30
2019-01-20T10:21:20.344Z,66.70
2019-01-20T10:23:48.938Z,65.20
2019-01-20T10:26:17.510Z,64.80
2019-01-20T10:28:46.123Z,64.80
2019-01-20T10:31:14.710Z,65.00
2019-01-20T10:33:43.330Z,66.60
2019-01-20T10:36:12.351Z,68.40
2019-01-20T10:38:40.946Z,70.70
2019-01-20T10:41:09.516Z,72.00
2019-01-20T10:43:38.089Z,71.50
2019-01-20T10:46:06.683Z,73.10
2019-01-20T10:48:35.283Z,72.50
2019-01-20T10:51:03.848Z,70.90
2019-01-20T10:53:32.429Z,68.70
2019-01-20T10:56:01.017Z,65.90
2019-01-20T10:58:29.994Z,64.10
2019-01-20T11:00:58.569Z,62.70
2019-01-20T11:03:27.272Z,60.50
2019-01-20T11:05:55.862Z,59.50
2019-01-20T11:08:25.802Z,61.60
2019-01-20T11:10:54.579Z,59.70
2019-01-20T11:13:23.199Z,57.70
2019-01-20T11:15:51.907Z,58.20
2019-01-20T11:18:20.566Z,59.10
2019-01-20T11:20:49.212Z,58.10
2019-01-20T11:23:19.365Z,57.80
2019-01-20T11:25:47.950Z,56.80
2019-01-20T11:28:16.555Z,55.10
2019-01-20T11:30:45.141Z,55.40
2019-01-20T11:33:13.735Z,54.30
2019-01-20T11:35:42.321Z,56.20
2019-01-20T11:38:10.999Z,56.00
2019-01-20T11:40:39.659Z,55.60
2019-01-20T11:43:08.346Z,54.70
2019-01-20T11:45:37.034Z,55.40
2019-01-20T11:48:07.526Z,55.60
2019-01-20T11:50:36.118Z,55.60
2019-01-20T11:53:04.693Z,56.50
2019-01-20T11:55:34.678Z,54.40
2019-01-20T11:58:04.222Z,54.80
2019-01-20T12:00:35.816Z,53.70
2019-01-20T12:03:07.499Z,54.30
2019-01-20T12:05:40.109Z,53.70
2019-01-20T12:08:09.859Z,53.40
2019-01-20T12:10:39.651Z,51.20
2019-01-20T12:13:12.537Z,53.70
2019-01-20T12:15:41.626Z,53.80
2019-01-20T12:18:11.363Z,53.30
2019-01-20T12:20:40.016Z,54.00
2019-01-20T12:23:08.599Z,54.20
2019-01-20T12:25:37.182Z,52.80
2019-01-20T12:28:05.766Z,51.60
2019-01-20T12:30:36.126Z,51.20
2019-01-20T12:33:05.081Z,51.50
2019-01-20T12:35:33.693Z,51.70
2019-01-20T12:38:02.277Z,51.00
2019-01-20T12:40:36.410Z,50.30
2019-01-20T12:43:04.990Z,49.60
2019-01-20T12:45:33.725Z,50.60
2019-01-20T12:48:02.429Z,51.30
2019-01-20T12:50:31.012Z,50.90
2019-01-20T12:52:59.670Z,51.90
2019-01-20T12:55:28.273Z,51.90
2019-01-20T12:57:56.962Z,51.30
2019-01-20T13:00:25.555Z,51.90
2019-01-20T13:02:54.134Z,51.10
2019-01-20T13:05:24.110Z,50.50
2019-01-20T13:07:53.034Z,50.10
2019-01-20T13:10:21.615Z,51.40
2019-01-20T13:12:50.182Z,49.50
2019-01-20T13:15:19.860Z,49.80
2019-01-20T13:17:48.651Z,50.60
2019-01-20T13:20:19.288Z,51.00
2019-01-20T13:22:47.924Z,51.30
2019-01-20T13:25:18.823Z,50.80
2019-01-20T13:27:47.510Z,51.30
2019-01-20T13:30:18.324Z,50.90
2019-01-20T13:32:46.940Z,50.10
2019-01-20T13:35:16.601Z,50.00
2019-01-20T13:37:47.894Z,51.70
2019-01-20T13:40:23.206Z,51.40
2019-01-20T13:42:51.784Z,51.30
2019-01-20T13:45:20.387Z,50.80
2019-01-20T13:47:49.154Z,50.10
2019-01-20T13:50:18.472Z,50.80
2019-01-20T13:52:47.185Z,49.80
2019-01-20T13:55:15.837Z,50.00
2019-01-20T13:57:44.417Z,50.90
2019-01-20T14:00:15.876Z,50.70
2019-01-20T14:02:44.447Z,51.10
2019-01-20T14:05:13.014Z,51.10
2019-01-20T14:07:41.616Z,50.70
2019-01-20T14:10:12.048Z,49.20
2019-01-20T14:12:42.849Z,52.00
2019-01-20T14:15:12.648Z,50.80
2019-01-20T14:17:41.251Z,50.40
2019-01-20T14:20:14.410Z,51.70
2019-01-20T14:22:43.037Z,51.60
2019-01-20T14:25:12.994Z,52.20
2019-01-20T14:27:41.640Z,52.40
2019-01-20T14:30:13.542Z,52.20
2019-01-20T14:32:42.198Z,53.60
2019-01-20T14:35:10.963Z,54.60
2019-01-20T14:37:39.568Z,53.40
2019-01-20T14:40:09.309Z,55.50
2019-01-20T14:42:37.960Z,55.30
2019-01-20T14:45:07.613Z,56.00
2019-01-20T14:47:42.924Z,55.50
2019-01-20T14:50:14.863Z,56.10
2019-01-20T14:52:43.573Z,56.10
2019-01-20T14:55:12.201Z,57.20
2019-01-20T14:57:41.016Z,57.30
2019-01-20T15:00:14.022Z,56.50
2019-01-20T15:02:43.981Z,56.00
2019-01-20T15:05:24.886Z,55.80
2019-01-20T15:07:55.043Z,56.80
2019-01-20T15:10:27.034Z,56.60
2019-01-20T15:12:55.975Z,57.00
2019-01-20T15:15:28.595Z,57.60
2019-01-20T15:17:57.361Z,58.30
2019-01-20T15:20:26.018Z,58.50
2019-01-20T15:22:55.707Z,59.30
2019-01-20T15:25:24.586Z,60.50
2019-01-20T15:27:59.251Z,63.10
2019-01-20T15:30:29.705Z,64.40
2019-01-20T15:33:00.075Z,65.20
2019-01-20T15:35:28.970Z,67.50
2019-01-20T15:37:57.766Z,68.70
2019-01-20T15:40:27.902Z,68.70
2019-01-20T15:42:56.632Z,69.80
2019-01-20T15:45:25.340Z,72.00
2019-01-20T15:47:55.655Z,71.10
2019-01-20T15:50:26.510Z,73.00
2019-01-20T15:52:55.082Z,72.60
2019-01-20T15:55:23.704Z,73.00
2019-01-20T15:57:53.204Z,75.30
2019-01-20T16:00:24.219Z,74.40
2019-01-20T16:02:52.799Z,74.80
2019-01-20T16:05:21.407Z,76.40
2019-01-20T16:07:50.164Z,78.00
2019-01-20T16:10:18.810Z,77.40
2019-01-20T16:12:47.841Z,77.70
2019-01-20T16:15:30.786Z,80.60
2019-01-20T16:17:59.375Z,82.00
2019-01-20T16:20:29.381Z,80.80
2019-01-20T16:22:58.070Z,80.90
2019-01-20T16:25:28.890Z,81.40
2019-01-20T16:27:57.482Z,81.60
2019-01-20T16:30:28.542Z,81.90
2019-01-20T16:32:57.145Z,82.40
2019-01-20T16:35:26.147Z,81.80
2019-01-20T16:37:56.195Z,82.00
2019-01-20T16:40:24.820Z,82.80
2019-01-20T16:42:55.564Z,82.40
2019-01-20T16:45:42.030Z,83.40
2019-01-20T16:48:06.930Z,83.10
2019-01-20T16:50:35.846Z,83.90
2019-01-20T16:53:05.336Z,84.60
2019-01-20T16:55:33.968Z,84.30
2019-01-20T16:58:02.666Z,84.10
2019-01-20T17:00:32.834Z,83.70
2019-01-20T17:03:01.458Z,84.70
2019-01-20T17:05:30.038Z,84.60
2019-01-20T17:07:58.679Z,84.90
2019-01-20T17:10:29.630Z,84.70
2019-01-20T17:12:58.222Z,85.30
2019-01-20T17:15:29.667Z,85.90
2019-01-20T17:17:58.313Z,86.20
2019-01-20T17:20:26.883Z,85.70
2019-01-20T17:22:55.523Z,86.10
2019-01-20T17:25:24.076Z,85.90
2019-01-20T17:27:52.698Z,85.90
2019-01-20T17:30:23.512Z,86.20
2019-01-20T17:32:53.949Z,86.20
2019-01-20T17:35:22.540Z,86.10
2019-01-20T17:37:51.151Z,85.60
2019-01-20T17:40:21.846Z,86.20
2019-01-20T17:42:50.435Z,86.00
2019-01-20T17:45:24.041Z,86.10
2019-01-20T17:47:52.734Z,86.60
2019-01-20T17:50:23.873Z,86.50
2019-01-20T17:52:54.505Z,86.00
2019-01-20T17:55:24.199Z,86.30
2019-01-20T17:57:52.774Z,86.60
2019-01-20T18:00:24.729Z,87.20
2019-01-20T18:02:53.322Z,87.30
2019-01-20T18:05:23.062Z,87.50
2019-01-20T18:07:53.436Z,87.80
2019-01-20T18:10:22.013Z,88.20
2019-01-20T18:12:50.610Z,88.00
2019-01-20T18:15:20.249Z,87.50
2019-01-20T18:17:51.184Z,87.60
2019-01-20T18:20:25.820Z,87.90
2019-01-20T18:22:54.386Z,88.00
2019-01-20T18:25:23.863Z,88.40
2019-01-20T18:27:52.457Z,88.40
2019-01-20T18:30:25.346Z,87.90
2019-01-20T18:32:54.482Z,89.10
2019-01-20T18:35:25.080Z,88.80
2019-01-20T18:37:53.703Z,89.20
2019-01-20T18:40:24.098Z,89.10
2019-01-20T18:42:54.943Z,89.40
2019-01-20T18:45:31.014Z,89.00
2019-01-20T18:48:00.014Z,89.40
2019-01-20T18:50:36.021Z,89.00
2019-01-20T18:53:05.017Z,89.20
2019-01-20T18:55:38.402Z,89.80
2019-01-20T18:58:07.541Z,89.40
2019-01-20T19:00:54.446Z,90.00
2019-01-20T19:03:23.112Z,90.00
2019-01-20T19:05:51.695Z,90.20
2019-01-20T19:08:20.297Z,90.10
2019-01-20T19:10:49.104Z,90.10
2019-01-20T19:13:17.755Z,90.20
2019-01-20T19:15:46.376Z,90.30
2019-01-20T19:18:18.869Z,90.60
2019-01-20T19:20:45.381Z,90.40
2019-01-20T19:23:14.015Z,90.50
2019-01-20T19:25:42.689Z,90.70
2019-01-20T19:28:11.309Z,90.50
2019-01-20T19:30:39.915Z,90.60
2019-01-20T19:33:09.090Z,90.70
2019-01-20T19:35:37.823Z,90.90
2019-01-20T19:38:06.393Z,90.80
2019-01-20T19:40:35.107Z,90.80
2019-01-20T19:43:03.696Z,91.00
2019-01-20T19:45:32.276Z,91.10
2019-01-20T19:48:00.900Z,91.10
2019-01-20T19:50:39.730Z,91.10
2019-01-20T19:53:08.311Z,91.20
2019-01-20T19:55:36.897Z,91.70
2019-01-20T19:58:05.662Z,91.60
2019-01-20T20:00:34.234Z,91.80
2019-01-20T20:03:02.821Z,91.70
2019-01-20T20:05:31.889Z,91.90
2019-01-20T20:08:00.530Z,91.90
2019-01-20T20:10:29.140Z,92.00
2019-01-20T20:12:58.288Z,92.10
2019-01-20T20:15:28.293Z,92.00
2019-01-20T20:17:56.914Z,92.10
2019-01-20T20:20:25.526Z,92.30
2019-01-20T20:22:54.190Z,92.50
2019-01-20T20:25:23.769Z,92.40
2019-01-20T20:27:52.677Z,92.50
2019-01-20T20:30:29.418Z,92.80
2019-01-20T20:32:58.075Z,92.50
2019-01-20T20:35:26.724Z,92.60
2019-01-20T20:37:55.418Z,92.70
2019-01-20T20:40:24.006Z,92.90
2019-01-20T20:42:52.618Z,92.70
2019-01-20T20:45:22.365Z,92.90
2019-01-20T20:47:50.946Z,92.60
2019-01-20T20:50:19.606Z,92.50
2019-01-20T20:52:48.178Z,92.70
2019-01-20T20:55:18.222Z,92.70
2019-01-20T20:57:49.226Z,92.70
2019-01-20T21:00:36.650Z,92.30
2019-01-20T21:03:09.575Z,92.10
2019-01-20T21:05:38.149Z,91.80
2019-01-20T21:08:07.138Z,91.90
2019-01-20T21:10:37.223Z,91.70
2019-01-20T21:13:05.906Z,91.50
2019-01-20T21:15:34.677Z,91.60
2019-01-20T21:18:04.011Z,91.60
2019-01-20T21:20:33.172Z,91.80
2019-01-20T21:23:01.896Z,91.80
2019-01-20T21:25:30.938Z,91.80
2019-01-20T21:28:01.357Z,92.00
2019-01-20T21:30:30.713Z,92.10
2019-01-20T21:32:59.322Z,92.00
2019-01-20T21:35:34.246Z,92.10
2019-01-20T21:38:06.903Z,92.20
2019-01-20T21:40:34.206Z,92.30
2019-01-20T21:43:03.202Z,92.30
2019-01-20T21:45:31.862Z,92.20
2019-01-20T21:48:00.663Z,92.20
2019-01-20T21:50:30.792Z,92.20
2019-01-20T21:53:01.029Z,92.30
2019-01-20T21:55:29.713Z,92.20
2019-01-20T21:57:58.373Z,92.40
2019-01-20T22:00:28.440Z,92.50
2019-01-20T22:02:57.024Z,92.40
2019-01-20T22:05:25.892Z,92.30
2019-01-20T22:07:55.661Z,92.30
2019-01-20T22:10:24.469Z,92.50
2019-01-20T22:12:53.058Z,92.50
2019-01-20T22:15:21.849Z,92.40
2019-01-20T22:17:50.645Z,92.30
2019-01-20T22:20:20.956Z,92.30
2019-01-20T22:22:49.768Z,92.50
2019-01-20T22:25:19.292Z,92.80
2019-01-20T22:27:48.306Z,92.80
2019-01-20T22:30:30.031Z,92.80
2019-01-20T22:33:00.235Z,92.80
2019-01-20T22:35:29.420Z,92.80
2019-01-20T22:37:58.275Z,92.60
2019-01-20T22:40:27.450Z,92.60
2019-01-20T22:42:56.038Z,92.70
2019-01-20T22:45:26.689Z,92.70
2019-01-20T22:47:55.688Z,92.80
2019-01-20T22:50:25.075Z,92.90
2019-01-20T22:52:53.890Z,92.80
2019-01-20T22:55:22.829Z,93.20
2019-01-20T22:57:51.825Z,93.20
2019-01-20T23:00:30.510Z,93.40
2019-01-20T23:02:59.231Z,93.70
2019-01-20T23:05:27.974Z,93.50
2019-01-20T23:07:57.294Z,93.70
2019-01-20T23:10:25.976Z,93.70
2019-01-20T23:12:54.566Z,93.50
2019-01-20T23:15:23.697Z,93.50
2019-01-20T23:17:52.341Z,93.60
2019-01-20T23:20:21.043Z,93.80
2019-01-20T23:22:49.730Z,93.80
2019-01-20T23:25:18.338Z,93.80
2019-01-20T23:27:47.327Z,93.90
2019-01-20T23:30:16.168Z,93.90
2019-01-20T23:32:44.770Z,93.80
2019-01-20T23:35:13.358Z,93.70
2019-01-20T23:37:41.934Z,93.90
2019-01-20T23:40:10.727Z,93.90
2019-01-20T23:42:39.298Z,93.90
2019-01-20T23:45:09.362Z,94.00
2019-01-20T23:47:37.926Z,94.10
2019-01-20T23:50:08.734Z,94.30
2019-01-20T23:52:37.377Z,94.50
2019-01-20T23:55:06.186Z,94.50
2019-01-20T23:57:34.767Z,94.50
